Time;durP1;ratioP1;P1;durP2;ratioP2;P2;SDS_P1;SDS_P2;PMS_P1;PMS_P2;Temp;Humidity;BMP_temperature;BMP_pressure;BME280_temperature;BME280_humidity;BME280_pressure;Samples;Min_cycle;Max_cycle;Signal;HPM_P1;HPM_P2
2021/08/13 00:02:23;;;;;;;;;8.75;8.75;;;;;22.98;59.90;101752.59;5070095;28;45618;-71
2021/08/13 00:04:49;;;;;;;;;10.75;9.00;;;;;22.94;59.86;101751.31;5077337;27;45576;-73
2021/08/13 00:07:14;;;;;;;;;9.00;9.00;;;;;22.90;59.85;101760.84;5071738;27;45495;-72
2021/08/13 00:09:40;;;;;;;;;9.00;9.00;;;;;22.85;60.25;101763.31;5068994;27;45596;-69
2021/08/13 00:12:06;;;;;;;;;10.75;9.00;;;;;22.80;59.68;101761.25;5070324;27;45519;-72
2021/08/13 00:14:32;;;;;;;;;8.25;8.00;;;;;22.75;59.43;101755.66;5069803;28;47500;-74
2021/08/13 00:16:57;;;;;;;;;8.00;8.00;;;;;22.71;59.56;101759.78;5054453;27;45413;-72
2021/08/13 00:19:23;;;;;;;;;10.00;9.75;;;;;22.68;59.48;101760.22;5075276;27;45532;-74
2021/08/13 00:21:49;;;;;;;;;13.00;10.25;;;;;22.64;59.21;101756.25;5076466;27;45503;-75
2021/08/13 00:24:15;;;;;;;;;11.00;10.00;;;;;22.60;59.42;101755.84;5051820;28;48149;-73
2021/08/13 00:26:41;;;;;;;;;11.00;9.00;;;;;22.56;59.68;101768.06;5072355;27;45368;-68
2021/08/13 00:29:06;;;;;;;;;10.00;10.00;;;;;22.48;58.96;101755.59;5072757;28;45455;-73
2021/08/13 00:31:31;;;;;;;;;10.75;8.00;;;;;22.46;58.86;101764.94;5069115;27;45438;-74
2021/08/13 00:33:57;;;;;;;;;10.25;9.50;;;;;22.42;58.84;101769.03;5070040;27;46270;-75
2021/08/13 00:36:22;;;;;;;;;9.50;8.00;;;;;22.36;59.70;101762.63;5071680;28;45611;-76
2021/08/13 00:38:47;;;;;;;;;9.75;8.75;;;;;22.32;59.70;101767.56;5077606;27;45495;-73
2021/08/13 00:41:13;;;;;;;;;9.00;9.00;;;;;22.30;59.20;101763.41;5071383;28;45675;-75
2021/08/13 00:43:38;;;;;;;;;10.00;10.00;;;;;22.25;59.35;101761.31;5067798;27;46474;-73
2021/08/13 00:46:05;;;;;;;;;12.75;8.50;;;;;22.22;59.73;101771.66;5069123;27;45525;-71
2021/08/13 00:48:30;;;;;;;;;12.75;9.50;;;;;22.17;59.07;101774.94;5068583;28;45771;-74
2021/08/13 00:50:56;;;;;;;;;9.00;9.00;;;;;22.13;59.35;101773.66;5057692;27;45433;-73
2021/08/13 00:53:22;;;;;;;;;9.50;9.00;;;;;22.10;59.17;101779.47;5072643;27;45436;-74
2021/08/13 00:55:50;;;;;;;;;10.00;8.25;;;;;22.05;59.40;101774.66;5068772;27;45958;-72
2021/08/13 00:58:17;;;;;;;;;9.25;9.00;;;;;22.00;59.57;101777.13;5073016;28;45622;-74
2021/08/13 01:00:43;;;;;;;;;8.50;7.25;;;;;21.95;59.06;101782.28;5071648;28;45463;-72
2021/08/13 01:03:09;;;;;;;;;12.00;9.00;;;;;21.92;58.53;101777.31;5079136;27;46023;-74
2021/08/13 01:05:35;;;;;;;;;9.00;8.75;;;;;21.89;59.77;101791.16;5072909;28;45626;-75
2021/08/13 01:08:00;;;;;;;;;9.00;8.25;;;;;21.85;58.88;101793.41;5071878;27;45428;-74
2021/08/13 01:10:31;;;;;;;;;10.75;8.50;;;;;21.80;59.41;101789.66;5072064;27;45457;-74
2021/08/13 01:13:08;;;;;;;;;12.50;8.00;;;;;21.75;59.07;101792.94;5073409;27;46366;-74
2021/08/13 01:15:40;;;;;;;;;8.50;8.00;;;;;21.69;59.53;101794.56;5053579;27;45577;-71
2021/08/13 01:18:22;;;;;;;;;9.50;8.50;;;;;21.64;59.63;101783.56;5074343;27;45815;-74
2021/08/13 01:21:23;;;;;;;;;11.00;8.00;;;;;21.61;59.33;101788.50;5072270;27;45440;-72
2021/08/13 01:24:15;;;;;;;;;10.00;7.00;;;;;21.57;60.54;101781.88;5047436;27;48517;-76
2021/08/13 01:26:46;;;;;;;;;12.00;9.75;;;;;21.53;59.46;101785.97;5070617;27;45576;-74
2021/08/13 01:29:25;;;;;;;;;9.25;8.50;;;;;21.48;59.82;101792.75;5071892;27;45468;-72
2021/08/13 01:32:07;;;;;;;;;8.50;8.00;;;;;21.46;59.62;101793.97;5070052;27;45540;-74
2021/08/13 01:34:33;;;;;;;;;10.50;8.25;;;;;21.42;59.84;101782.81;5063985;27;46236;-69
2021/08/13 01:37:00;;;;;;;;;8.50;8.00;;;;;21.41;59.76;101777.59;5071332;27;45477;-71
2021/08/13 01:39:30;;;;;;;;;8.50;8.25;;;;;21.38;59.49;101780.66;5080951;27;45533;-71
2021/08/13 01:41:57;;;;;;;;;10.50;9.75;;;;;21.35;59.43;101771.13;5087042;27;45390;-74
2021/08/13 01:44:24;;;;;;;;;9.25;8.25;;;;;21.33;59.97;101775.88;5072510;27;45541;-74
2021/08/13 01:46:51;;;;;;;;;8.50;7.00;;;;;21.29;60.17;101769.25;5062634;27;45509;-74
2021/08/13 01:49:18;;;;;;;;;9.00;9.00;;;;;21.25;60.08;101776.03;5067824;27;45513;-74
2021/08/13 01:51:46;;;;;;;;;10.50;8.00;;;;;21.19;60.12;101771.41;5069485;27;45567;-73
2021/08/13 01:54:12;;;;;;;;;10.00;9.00;;;;;21.17;60.54;101778.88;5050987;28;47940;-74
2021/08/13 01:56:39;;;;;;;;;9.25;8.50;;;;;21.14;60.14;101777.41;5076053;27;45432;-76
2021/08/13 01:59:04;;;;;;;;;10.75;8.75;;;;;21.11;60.95;101777.75;5071848;27;45507;-72
2021/08/13 02:01:31;;;;;;;;;8.25;7.75;;;;;21.07;60.93;101779.19;5080608;27;45511;-72
2021/08/13 02:03:57;;;;;;;;;8.00;8.00;;;;;21.03;60.35;101781.41;5069346;27;46491;-69
2021/08/13 02:06:24;;;;;;;;;8.25;7.00;;;;;20.99;60.75;101787.38;5069786;27;45573;-74
2021/08/13 02:08:51;;;;;;;;;10.25;7.75;;;;;20.96;60.70;101785.06;5068949;27;45484;-75
2021/08/13 02:11:17;;;;;;;;;8.25;7.00;;;;;20.92;60.40;101776.56;5078283;27;45433;-72
2021/08/13 02:13:43;;;;;;;;;8.00;7.25;;;;;20.91;60.05;101776.75;5069382;27;45533;-74
2021/08/13 02:16:11;;;;;;;;;8.00;7.50;;;;;20.91;61.43;101790.19;5067956;27;45481;-73
2021/08/13 02:18:41;;;;;;;;;9.00;7.00;;;;;20.88;61.29;101794.09;5071146;28;45492;-71
2021/08/13 02:21:11;;;;;;;;;9.25;7.25;;;;;20.85;60.34;101785.59;5070660;27;45453;-75
2021/08/13 02:23:37;;;;;;;;;8.25;6.75;;;;;20.81;60.52;101795.88;5078146;27;45502;-71
2021/08/13 02:26:03;;;;;;;;;8.00;7.75;;;;;20.79;60.73;101793.38;5078038;27;45531;-76
2021/08/13 02:28:29;;;;;;;;;8.00;7.50;;;;;20.77;60.26;101784.69;5073334;27;45674;-73
2021/08/13 02:30:55;;;;;;;;;9.75;7.00;;;;;20.76;59.98;101782.19;5071835;27;45538;-73
2021/08/13 02:33:21;;;;;;;;;9.00;7.50;;;;;20.75;60.08;101780.53;5070205;27;45535;-71
2021/08/13 02:35:49;;;;;;;;;8.00;7.75;;;;;20.74;59.96;101785.06;5077937;27;45508;-72
2021/08/13 02:38:27;;;;;;;;;8.50;7.00;;;;;20.73;59.96;101780.72;5058738;28;46489;-69
2021/08/13 02:41:00;;;;;;;;;9.00;7.00;;;;;20.71;60.13;101784.63;5067512;27;45665;-71
2021/08/13 02:43:33;;;;;;;;;7.25;7.25;;;;;20.68;59.83;101785.00;5047719;28;47386;-72
2021/08/13 02:46:00;;;;;;;;;6.00;6.00;;;;;20.67;59.81;101789.53;5046025;28;45509;-71
2021/08/13 02:48:27;;;;;;;;;6.75;5.75;;;;;20.66;61.00;101779.00;5075556;27;45476;-76
2021/08/13 02:50:55;;;;;;;;;7.00;5.00;;;;;20.63;59.85;101782.91;5071209;27;45406;-72
2021/08/13 02:53:23;;;;;;;;;8.00;6.00;;;;;20.62;59.73;101775.84;5071530;27;45431;-72
2021/08/13 02:55:54;;;;;;;;;7.25;5.00;;;;;20.61;60.03;101779.56;5068973;27;45690;-72
2021/08/13 02:58:24;;;;;;;;;9.25;5.75;;;;;20.58;60.29;101788.00;5067746;27;45773;-75
2021/08/13 03:00:51;;;;;;;;;6.25;6.25;;;;;20.58;60.72;101790.69;5062367;27;45693;-69
2021/08/13 03:03:18;;;;;;;;;9.25;5.00;;;;;20.56;60.60;101782.00;5067423;27;45582;-69
2021/08/13 03:05:48;;;;;;;;;7.00;6.75;;;;;20.54;60.50;101774.06;5069271;28;45478;-74
2021/08/13 03:08:15;;;;;;;;;9.75;6.25;;;;;20.52;60.56;101769.91;5082156;27;45527;-72
2021/08/13 03:10:41;;;;;;;;;5.25;5.25;;;;;20.49;60.66;101792.63;5074610;27;45902;-73
2021/08/13 03:13:07;;;;;;;;;5.75;5.75;;;;;20.46;60.19;101797.53;5072955;27;45562;-73
2021/08/13 03:15:34;;;;;;;;;8.25;7.25;;;;;20.44;60.40;101794.22;5070909;27;45598;-70
2021/08/13 03:18:01;;;;;;;;;7.00;6.00;;;;;20.39;60.99;101798.28;5068696;27;45598;-74
2021/08/13 03:20:27;;;;;;;;;7.00;7.00;;;;;20.36;60.72;101795.16;5077547;27;45472;-73
2021/08/13 03:22:53;;;;;;;;;6.50;6.25;;;;;20.33;61.78;101796.38;5078652;27;46415;-75
2021/08/13 03:25:19;;;;;;;;;8.75;7.25;;;;;20.29;61.49;101792.38;5072108;27;45584;-71
2021/08/13 03:27:45;;;;;;;;;7.50;4.25;;;;;20.27;61.61;101807.84;5081039;27;45395;-73
2021/08/13 03:30:11;;;;;;;;;7.00;7.00;;;;;20.25;61.04;101796.50;5069996;27;45559;-72
2021/08/13 03:32:39;;;;;;;;;6.00;6.00;;;;;20.23;61.00;101798.53;5056638;28;46704;-71
2021/08/13 03:35:05;;;;;;;;;9.50;7.00;;;;;20.21;61.02;101799.72;5070807;27;45631;-74
2021/08/13 03:37:30;;;;;;;;;3.50;3.50;;;;;20.19;61.91;101802.59;5051925;27;45747;-72
2021/08/13 03:39:56;;;;;;;;;6.75;6.75;;;;;20.15;61.22;101807.50;5059683;28;45496;-71
2021/08/13 03:42:21;;;;;;;;;7.50;6.50;;;;;20.13;61.38;101806.84;5081888;27;46547;-75
2021/08/13 03:44:47;;;;;;;;;5.75;4.25;;;;;20.13;62.03;101803.34;5065769;27;45443;-71
2021/08/13 03:47:12;;;;;;;;;8.25;7.00;;;;;20.10;61.95;101804.56;5072010;27;45603;-71
2021/08/13 03:49:38;;;;;;;;;6.75;6.00;;;;;20.07;61.82;101799.53;5073137;27;45506;-75
2021/08/13 03:52:03;;;;;;;;;6.75;6.00;;;;;20.05;61.89;101803.44;5066499;27;50105;-71
2021/08/13 03:54:28;;;;;;;;;5.75;5.75;;;;;20.01;61.55;101802.16;5074359;27;45338;-73
2021/08/13 03:56:54;;;;;;;;;5.75;5.75;;;;;19.98;61.84;101800.69;5073398;27;45376;-72
2021/08/13 03:59:19;;;;;;;;;7.00;5.75;;;;;19.95;61.54;101806.38;5072580;27;45446;-74
2021/08/13 04:01:44;;;;;;;;;7.75;5.00;;;;;19.95;61.86;101807.25;5071371;27;46187;-72
2021/08/13 04:04:10;;;;;;;;;7.00;5.00;;;;;19.95;61.45;101807.25;5071935;27;45563;-72
2021/08/13 04:06:35;;;;;;;;;6.00;6.00;;;;;19.95;61.94;101801.88;5080088;27;45629;-72
2021/08/13 04:09:00;;;;;;;;;9.00;6.00;;;;;19.94;61.78;101800.19;5052662;27;45975;-71
2021/08/13 04:11:26;;;;;;;;;5.25;5.25;;;;;19.93;62.21;101797.69;5071760;27;45596;-74
2021/08/13 04:13:51;;;;;;;;;4.75;4.75;;;;;19.90;62.09;101809.63;5086960;27;45757;-73
2021/08/13 04:16:16;;;;;;;;;9.25;6.25;;;;;19.87;62.27;101811.84;5069626;27;45441;-73
2021/08/13 04:18:42;;;;;;;;;6.00;6.00;;;;;19.87;63.15;101820.72;5070021;27;45665;-73
2021/08/13 04:21:07;;;;;;;;;8.00;7.50;;;;;19.85;61.88;101822.75;5056730;28;47502;-71
2021/08/13 04:23:33;;;;;;;;;6.00;5.50;;;;;19.85;61.69;101816.56;5070329;28;45535;-73
2021/08/13 04:25:58;;;;;;;;;10.00;7.00;;;;;19.83;62.10;101821.28;5054164;28;45520;-75
2021/08/13 04:28:23;;;;;;;;;10.75;8.00;;;;;19.79;62.28;101834.25;5070080;27;48426;-72
2021/08/13 04:30:49;;;;;;;;;7.00;6.50;;;;;19.76;62.54;101834.63;5054730;28;48259;-74
2021/08/13 04:33:14;;;;;;;;;7.75;7.50;;;;;19.73;63.25;101829.59;5071857;28;45608;-72
2021/08/13 04:35:40;;;;;;;;;8.75;6.75;;;;;19.71;62.76;101831.66;5059584;27;45645;-71
2021/08/13 04:38:06;;;;;;;;;7.00;7.00;;;;;19.67;63.16;101828.47;5066658;28;45511;-74
2021/08/13 04:40:31;;;;;;;;;7.50;7.50;;;;;19.66;62.35;101831.34;5070463;27;45491;-72
2021/08/13 04:42:57;;;;;;;;;8.00;7.25;;;;;19.64;63.58;101836.88;5074583;27;45548;-72
2021/08/13 04:45:23;;;;;;;;;7.25;6.75;;;;;19.62;63.05;101830.03;5076440;27;45511;-71
2021/08/13 04:47:48;;;;;;;;;8.00;7.00;;;;;19.60;62.44;101824.84;5073861;27;45476;-69
2021/08/13 04:50:14;;;;;;;;;7.75;7.00;;;;;19.60;63.02;101832.06;5075817;27;45481;-74
2021/08/13 04:52:44;;;;;;;;;6.25;6.00;;;;;19.60;62.84;101842.78;5080155;27;45491;-73
2021/08/13 04:55:11;;;;;;;;;8.75;7.00;;;;;19.59;62.54;101844.63;5059616;28;45476;-72
2021/08/13 04:57:36;;;;;;;;;9.00;7.50;;;;;19.60;62.77;101846.28;5073038;27;45562;-73
2021/08/13 05:00:03;;;;;;;;;9.00;8.00;;;;;19.58;63.29;101842.94;5074849;27;45762;-73
2021/08/13 05:02:29;;;;;;;;;6.00;5.00;;;;;19.55;62.82;101838.78;5074190;27;45405;-73
2021/08/13 05:05:02;;;;;;;;;7.00;7.00;;;;;19.54;63.23;101837.13;5081592;27;45381;-69
2021/08/13 05:07:31;;;;;;;;;6.75;6.75;;;;;19.54;62.84;101853.22;5073227;27;45465;-69
2021/08/13 05:09:57;;;;;;;;;7.25;7.00;;;;;19.54;63.44;101857.75;5065384;27;45499;-71
2021/08/13 05:12:22;;;;;;;;;7.75;7.00;;;;;19.54;63.81;101857.75;5074671;27;45617;-73
2021/08/13 05:14:48;;;;;;;;;5.00;5.00;;;;;19.53;64.12;101851.56;5083294;27;45776;-72
2021/08/13 05:17:13;;;;;;;;;5.50;5.50;;;;;19.55;63.55;101862.91;5050198;28;45449;-69
2021/08/13 05:19:38;;;;;;;;;8.50;5.75;;;;;19.58;63.61;101863.56;5071914;27;45506;-71
2021/08/13 05:22:05;;;;;;;;;6.50;4.25;;;;;19.63;63.59;101863.84;5079637;27;45453;-69
2021/08/13 05:24:30;;;;;;;;;7.00;6.00;;;;;19.66;63.38;101879.59;5070075;27;45620;-71
2021/08/13 05:26:55;;;;;;;;;6.50;5.25;;;;;19.72;63.31;101881.56;5078328;27;45719;-74
2021/08/13 05:29:21;;;;;;;;;5.00;5.00;;;;;19.78;63.53;101880.84;5082158;27;46273;-74
2021/08/13 05:31:46;;;;;;;;;4.25;4.00;;;;;19.86;63.26;101872.72;5068678;27;51877;-72
2021/08/13 05:34:12;;;;;;;;;7.50;5.00;;;;;19.96;62.98;101884.03;5064086;27;47751;-74
2021/08/13 05:36:37;;;;;;;;;5.75;4.00;;;;;20.05;62.73;101891.97;5079077;27;45615;-73
2021/08/13 05:39:03;;;;;;;;;5.75;4.00;;;;;20.12;62.18;101895.59;5074483;27;46111;-74
2021/08/13 05:41:28;;;;;;;;;7.25;5.75;;;;;20.17;62.32;101896.69;5071003;27;45463;-73
2021/08/13 05:43:53;;;;;;;;;5.50;4.75;;;;;20.25;62.15;101900.31;5075488;27;45445;-74
2021/08/13 05:46:19;;;;;;;;;7.50;6.25;;;;;20.31;62.02;101903.09;5076215;27;45349;-74
2021/08/13 05:48:44;;;;;;;;;13.75;7.75;;;;;20.36;61.97;101907.91;5078153;27;45480;-74
2021/08/13 05:51:09;;;;;;;;;6.00;5.00;;;;;20.42;63.15;101904.47;5082648;27;45407;-73
2021/08/13 05:53:35;;;;;;;;;6.00;3.75;;;;;20.47;63.38;101903.91;5076723;27;45544;-71
2021/08/13 05:56:00;;;;;;;;;5.00;5.00;;;;;20.53;63.42;101900.50;5069840;27;45642;-71
2021/08/13 05:58:25;;;;;;;;;7.00;5.75;;;;;20.56;63.46;101889.41;5066815;27;46028;-71
2021/08/13 06:00:51;;;;;;;;;4.50;4.50;;;;;20.61;62.67;101903.94;5073711;27;45492;-70
2021/08/13 06:03:16;;;;;;;;;5.75;5.75;;;;;20.68;62.78;101914.75;5066687;27;45581;-71
2021/08/13 06:05:41;;;;;;;;;5.50;4.00;;;;;20.81;62.06;101912.22;5058478;27;45519;-74
2021/08/13 06:08:07;;;;;;;;;5.00;4.00;;;;;20.99;61.30;101911.84;5071124;27;45544;-73
2021/08/13 06:10:32;;;;;;;;;6.00;5.00;;;;;21.18;60.84;101929.19;5067775;27;45460;-72
2021/08/13 06:12:57;;;;;;;;;5.00;3.50;;;;;21.33;61.14;101923.75;5071136;27;46146;-74
2021/08/13 06:15:23;;;;;;;;;5.50;5.00;;;;;21.43;58.93;101912.69;5067849;27;45553;-72
2021/08/13 06:17:48;;;;;;;;;5.00;4.00;;;;;21.40;59.37;101907.72;5078816;27;45644;-74
2021/08/13 06:20:18;;;;;;;;;3.00;3.00;;;;;21.44;58.99;101898.25;5068510;28;45501;-75
2021/08/13 06:22:43;;;;;;;;;5.00;4.00;;;;;21.56;58.86;101895.84;5055809;27;45434;-75
2021/08/13 06:25:09;;;;;;;;;4.75;4.25;;;;;21.67;58.39;101893.47;5078732;27;45450;-71
2021/08/13 06:27:39;;;;;;;;;5.00;4.00;;;;;21.78;58.04;101902.84;5067738;27;46575;-71
2021/08/13 06:30:05;;;;;;;;;3.25;3.25;;;;;21.89;58.10;101909.56;5071440;27;45438;-75
2021/08/13 06:32:30;;;;;;;;;5.50;5.00;;;;;21.98;57.84;101915.63;5070864;27;45472;-74
2021/08/13 06:34:55;;;;;;;;;5.00;5.00;;;;;22.06;58.31;101913.63;5070676;27;45473;-74
2021/08/13 06:37:21;;;;;;;;;8.00;4.00;;;;;22.12;57.96;101912.00;5067224;28;51492;-75
2021/08/13 06:39:46;;;;;;;;;5.75;4.50;;;;;22.24;57.40;101923.09;5048307;28;45386;-75
2021/08/13 06:42:11;;;;;;;;;4.00;4.00;;;;;22.36;57.36;101924.19;5052260;28;45339;-73
2021/08/13 06:44:37;;;;;;;;;6.00;3.75;;;;;22.46;57.23;101934.59;5067962;28;45511;-76
2021/08/13 06:47:02;;;;;;;;;5.00;5.00;;;;;22.47;57.25;101931.69;5065993;27;45431;-74
2021/08/13 06:49:28;;;;;;;;;4.00;4.00;;;;;22.56;56.45;101940.47;5075768;27;45572;-74
2021/08/13 06:51:53;;;;;;;;;4.50;4.00;;;;;22.64;56.70;101942.97;5078121;27;45829;-68
2021/08/13 06:54:18;;;;;;;;;4.00;4.00;;;;;22.78;56.21;101948.44;5051998;27;45541;-71
2021/08/13 06:56:44;;;;;;;;;6.00;6.00;;;;;22.91;55.48;101940.38;5078517;27;45585;-75
2021/08/13 06:59:09;;;;;;;;;6.25;6.25;;;;;23.02;55.53;101939.00;5048983;28;45829;-71
2021/08/13 07:01:34;;;;;;;;;5.00;5.00;;;;;23.17;54.86;101934.28;5068770;27;45403;-71
2021/08/13 07:04:00;;;;;;;;;7.00;5.00;;;;;23.32;55.18;101945.72;5068558;27;45524;-71
2021/08/13 07:06:25;;;;;;;;;5.75;5.75;;;;;23.38;54.06;101944.88;5050325;27;48203;-71
2021/08/13 07:08:50;;;;;;;;;7.75;5.00;;;;;23.45;54.96;101939.50;5076423;27;45736;-73
2021/08/13 07:11:16;;;;;;;;;8.25;6.00;;;;;23.56;53.65;101943.47;5067177;27;45575;-69
2021/08/13 07:13:41;;;;;;;;;6.50;5.00;;;;;23.59;53.76;101940.38;5075839;27;45558;-73
2021/08/13 07:16:06;;;;;;;;;5.50;5.00;;;;;23.60;53.70;101942.84;5069143;27;45510;-71
2021/08/13 07:18:32;;;;;;;;;5.00;5.00;;;;;23.70;53.56;101947.00;5068579;27;45447;-71
2021/08/13 07:20:57;;;;;;;;;7.50;4.50;;;;;23.84;52.34;101954.09;5084652;27;45535;-71
2021/08/13 07:23:22;;;;;;;;;6.75;4.25;;;;;23.87;52.34;101966.34;5078357;27;45436;-71
2021/08/13 07:25:48;;;;;;;;;3.00;3.00;;;;;23.91;50.78;101970.28;5074053;27;45581;-69
2021/08/13 07:28:13;;;;;;;;;5.00;3.50;;;;;23.99;52.10;101970.09;5071145;27;45645;-74
2021/08/13 07:30:38;;;;;;;;;2.00;2.00;;;;;24.25;51.86;101974.59;5051886;28;45508;-71
2021/08/13 07:33:04;;;;;;;;;3.75;3.00;;;;;24.44;50.23;101972.91;5079963;27;45717;-73
2021/08/13 07:35:29;;;;;;;;;4.25;2.75;;;;;24.50;49.58;101977.47;5077384;27;46565;-73
2021/08/13 07:37:54;;;;;;;;;5.00;3.25;;;;;24.78;50.14;101977.19;5068467;27;45531;-75
2021/08/13 07:40:20;;;;;;;;;3.75;2.00;;;;;25.08;48.66;101976.66;5070309;27;45575;-68
2021/08/13 07:42:45;;;;;;;;;3.75;3.00;;;;;26.08;48.76;101975.97;5065900;27;45889;-71
2021/08/13 07:45:11;;;;;;;;;6.00;3.00;;;;;28.87;45.62;101981.84;5074873;27;45996;-71
2021/08/13 07:47:37;;;;;;;;;5.00;3.00;;;;;32.16;40.83;101988.69;5054682;27;45480;-68
2021/08/13 07:50:03;;;;;;;;;2.25;2.25;;;;;35.00;37.65;101989.31;5076295;27;45560;-76
2021/08/13 07:52:29;;;;;;;;;2.75;2.25;;;;;37.33;34.65;101994.50;5062542;27;45391;-74
2021/08/13 07:54:54;;;;;;;;;3.75;2.75;;;;;38.76;32.34;102004.81;5081647;27;46141;-72
2021/08/13 07:57:21;;;;;;;;;3.00;3.00;;;;;39.11;30.60;102013.41;5072691;27;45360;-69
2021/08/13 07:59:46;;;;;;;;;3.50;3.25;;;;;39.08;31.16;102012.09;5071388;27;45449;-75
2021/08/13 08:02:12;;;;;;;;;3.50;2.00;;;;;39.60;28.05;102008.09;5071915;27;45577;-71
2021/08/13 08:04:37;;;;;;;;;1.50;1.50;;;;;39.12;28.62;102021.41;5052202;28;47821;-69
2021/08/13 08:07:03;;;;;;;;;1.25;1.25;;;;;40.07;27.24;102025.13;5058184;27;45738;-69
2021/08/13 08:09:29;;;;;;;;;2.00;2.00;;;;;41.08;26.92;102041.84;5070361;27;45497;-73
2021/08/13 08:11:55;;;;;;;;;2.75;1.75;;;;;42.17;26.00;102029.56;5071171;27;45455;-71
2021/08/13 08:14:21;;;;;;;;;2.00;1.00;;;;;43.07;24.53;102042.22;5051971;27;47060;-69
2021/08/13 08:16:47;;;;;;;;;3.00;2.75;;;;;44.28;24.31;102039.31;5074992;27;45393;-73
2021/08/13 08:19:12;;;;;;;;;0.75;0.75;;;;;45.40;20.80;102042.28;5056661;27;45494;-69
2021/08/13 08:21:38;;;;;;;;;0.75;0.75;;;;;46.12;21.85;102052.53;5069722;27;45526;-71
2021/08/13 08:24:04;;;;;;;;;1.25;1.25;;;;;46.80;21.20;102054.13;5059862;27;47794;-75
2021/08/13 08:26:29;;;;;;;;;3.00;2.50;;;;;47.36;21.12;102050.06;5072147;27;45677;-75
2021/08/13 08:28:55;;;;;;;;;4.25;2.50;;;;;47.85;20.01;102054.97;5080647;27;45571;-72
2021/08/13 08:31:20;;;;;;;;;2.75;2.00;;;;;48.45;19.68;102054.31;5070429;27;45407;-70
2021/08/13 08:33:45;;;;;;;;;3.75;2.00;;;;;49.09;19.37;102054.38;5070390;27;46144;-75
2021/08/13 08:36:11;;;;;;;;;2.50;2.50;;;;;49.50;18.54;102043.16;5084064;27;45584;-73
2021/08/13 08:38:36;;;;;;;;;2.00;2.00;;;;;50.03;17.76;102044.81;5072902;27;45821;-75
2021/08/13 08:41:04;;;;;;;;;2.00;2.00;;;;;50.17;17.47;102049.75;5068299;27;45823;-75
2021/08/13 08:43:29;;;;;;;;;1.00;1.00;;;;;49.52;17.86;102051.19;5066720;27;45619;-75
2021/08/13 08:45:56;;;;;;;;;1.50;1.50;;;;;48.68;17.88;102062.66;5064563;27;45497;-71
2021/08/13 08:48:23;;;;;;;;;2.00;2.00;;;;;48.14;19.17;102058.22;5070189;27;45558;-75
2021/08/13 08:50:49;;;;;;;;;2.00;1.00;;;;;47.86;16.49;102064.19;5071437;27;45556;-75
2021/08/13 08:53:25;;;;;;;;;2.25;2.25;;;;;47.49;18.31;102075.91;5062282;28;46257;-74
2021/08/13 08:55:54;;;;;;;;;2.25;2.25;;;;;47.28;18.64;102062.28;5064827;27;45474;-75
2021/08/13 08:58:20;;;;;;;;;2.00;1.50;;;;;47.08;18.77;102053.91;5065918;27;45584;-75
2021/08/13 09:00:46;;;;;;;;;2.50;2.00;;;;;46.51;19.67;102056.25;5052003;27;45600;-75
2021/08/13 09:03:14;;;;;;;;;3.00;2.00;;;;;45.85;20.31;102062.59;5071427;27;45428;-72
2021/08/13 09:05:39;;;;;;;;;1.25;1.25;;;;;45.21;20.49;102053.31;5080494;27;45473;-72
2021/08/13 09:08:05;;;;;;;;;2.75;1.00;;;;;44.55;20.47;102048.94;5074998;27;45593;-71
2021/08/13 09:10:30;;;;;;;;;3.75;2.75;;;;;43.89;21.42;102053.53;5064172;27;45424;-72
2021/08/13 09:13:03;;;;;;;;;2.25;2.00;;;;;43.37;21.79;102040.97;5070209;27;47136;-75
2021/08/13 09:15:33;;;;;;;;;2.00;1.00;;;;;43.06;22.54;102043.41;5060171;28;46003;-72
2021/08/13 09:18:17;;;;;;;;;1.75;1.00;;;;;42.69;21.95;102040.38;5069943;27;45667;-74
2021/08/13 09:21:03;;;;;;;;;2.25;2.00;;;;;41.97;20.03;102034.72;5074194;27;45515;-69
2021/08/13 09:23:35;;;;;;;;;3.50;2.00;;;;;40.65;22.64;102032.31;5070434;27;45539;-74
2021/08/13 09:26:23;;;;;;;;;2.75;2.00;;;;;39.90;22.04;102032.19;5076056;27;45560;-74
2021/08/13 09:28:55;;;;;;;;;3.00;3.00;;;;;38.96;24.72;102044.19;5068061;27;45510;-69
2021/08/13 09:31:31;;;;;;;;;3.00;1.00;;;;;38.72;26.25;102045.22;5069686;27;45620;-71
2021/08/13 09:34:11;;;;;;;;;2.75;2.75;;;;;38.45;23.95;102052.41;5066727;27;47229;-69
2021/08/13 09:36:38;;;;;;;;;2.50;2.50;;;;;37.90;26.41;102045.97;5073720;27;45484;-74
2021/08/13 09:39:04;;;;;;;;;2.00;2.00;;;;;37.85;27.01;102044.09;5068469;27;45658;-71
2021/08/13 09:41:43;;;;;;;;;4.75;3.25;;;;;37.97;26.69;102046.38;5071218;27;45485;-72
2021/08/13 09:44:08;;;;;;;;;2.50;2.50;;;;;37.92;26.45;102041.78;5049459;28;46970;-74
2021/08/13 09:46:34;;;;;;;;;3.00;1.75;;;;;37.71;26.03;102038.53;5072495;27;45428;-74
2021/08/13 09:49:13;;;;;;;;;2.25;1.75;;;;;37.64;26.30;102040.91;5066735;27;49403;-71
2021/08/13 09:51:39;;;;;;;;;3.25;2.00;;;;;37.38;25.67;102029.44;5069411;27;45515;-69
2021/08/13 09:54:06;;;;;;;;;2.00;2.00;;;;;37.28;27.36;102029.59;5068341;27;45584;-72
2021/08/13 09:56:35;;;;;;;;;1.75;1.75;;;;;37.34;27.87;102023.72;5070625;27;45535;-72
2021/08/13 09:59:20;;;;;;;;;3.00;2.25;;;;;37.61;27.41;102023.03;5068615;27;45483;-75
2021/08/13 10:01:51;;;;;;;;;2.50;2.50;;;;;37.67;25.92;102017.41;5054354;28;45612;-74
2021/08/13 10:04:32;;;;;;;;;2.25;2.00;;;;;37.25;25.63;102017.25;5064859;27;45743;-68
2021/08/13 10:06:57;;;;;;;;;5.50;3.75;;;;;36.71;25.64;102021.31;5072869;27;45505;-71
2021/08/13 10:09:25;;;;;;;;;4.50;3.50;;;;;36.27;26.52;102027.84;5077144;27;45512;-72
2021/08/13 10:11:59;;;;;;;;;2.75;2.00;;;;;36.01;29.20;102019.06;5066004;27;45587;-71
2021/08/13 10:14:40;;;;;;;;;4.00;3.00;;;;;36.14;27.92;102019.19;5066458;27;46516;-74
2021/08/13 10:17:26;;;;;;;;;2.00;2.00;;;;;36.39;28.57;102025.53;5078057;27;45511;-75
2021/08/13 10:19:52;;;;;;;;;3.75;3.75;;;;;36.78;28.40;102021.75;5069841;27;45558;-72
2021/08/13 10:22:19;;;;;;;;;3.00;3.00;;;;;37.21;28.14;102029.97;5068266;27;45621;-75
2021/08/13 10:24:47;;;;;;;;;5.50;3.25;;;;;37.45;27.01;102018.84;5068096;28;46712;-72
2021/08/13 10:27:15;;;;;;;;;6.00;4.50;;;;;37.50;27.62;102020.72;5069133;27;45649;-71
2021/08/13 10:29:42;;;;;;;;;4.50;4.50;;;;;37.46;26.72;102020.47;5071093;27;45425;-69
2021/08/13 10:32:08;;;;;;;;;3.50;3.50;;;;;37.36;27.49;102020.66;5068510;27;45463;-74
2021/08/13 10:34:34;;;;;;;;;5.00;5.00;;;;;37.32;27.61;102016.88;5069225;27;45715;-75
2021/08/13 10:37:02;;;;;;;;;5.25;4.00;;;;;37.31;25.89;102012.47;5052811;28;46008;-74
2021/08/13 10:39:31;;;;;;;;;5.00;5.00;;;;;37.38;27.66;102010.97;5078562;27;45524;-74
2021/08/13 10:42:03;;;;;;;;;3.25;3.25;;;;;37.50;27.50;102007.75;5065945;27;45617;-71
2021/08/13 10:44:33;;;;;;;;;4.00;4.00;;;;;37.85;27.82;102014.56;5081687;27;47670;-74
2021/08/13 10:47:01;;;;;;;;;7.50;4.50;;;;;38.37;27.34;102008.91;5047899;28;45453;-71
2021/08/13 10:49:27;;;;;;;;;6.00;5.50;;;;;38.84;28.67;102014.28;5066725;27;45457;-71
2021/08/13 10:52:06;;;;;;;;;4.50;4.50;;;;;39.00;23.48;102004.56;5067072;27;45438;-71
2021/08/13 10:54:42;;;;;;;;;4.75;4.00;;;;;38.48;24.06;102018.66;5063201;27;46310;-71
2021/08/13 10:57:09;;;;;;;;;4.50;4.50;;;;;37.95;25.74;102010.00;5067870;27;45592;-74
2021/08/13 10:59:40;;;;;;;;;6.50;4.00;;;;;38.01;28.40;102012.41;5066446;27;45605;-71
2021/08/13 11:02:11;;;;;;;;;6.00;4.50;;;;;38.42;27.20;102016.28;5067580;28;45496;-75
2021/08/13 11:04:41;;;;;;;;;6.25;5.75;;;;;38.87;26.78;102016.44;5068186;27;46343;-71
2021/08/13 11:07:07;;;;;;;;;8.25;6.50;;;;;39.15;26.74;102014.44;5068745;27;45524;-72
2021/08/13 11:09:37;;;;;;;;;4.50;4.50;;;;;39.43;27.20;101998.56;5071842;27;45599;-71
2021/08/13 11:12:04;;;;;;;;;5.75;4.50;;;;;39.66;27.38;101999.34;5079726;27;45743;-72
2021/08/13 11:14:55;;;;;;;;;5.50;5.50;;;;;39.87;26.34;102007.13;5073347;27;46155;-71
2021/08/13 11:17:42;;;;;;;;;7.00;4.50;;;;;40.20;26.82;102008.38;5074327;27;45521;-72
2021/08/13 11:20:10;;;;;;;;;7.75;4.50;;;;;40.28;24.99;102001.28;5069558;27;45472;-72
2021/08/13 11:22:37;;;;;;;;;6.50;6.00;;;;;39.76;25.67;101995.47;5070239;27;45544;-69
2021/08/13 11:25:08;;;;;;;;;7.00;6.50;;;;;39.19;24.35;101992.50;5069314;27;45452;-72
2021/08/13 11:27:34;;;;;;;;;7.00;6.00;;;;;38.90;26.52;102007.56;5070830;27;45482;-69